Terminal Aerodrome Forecast
Issued by NWS

Home | Current Version | Previous Version | Text Only | Print | Product List | Glossary On
Versions: 1 2 3 4 5 6 7 8 9 10 11 12 13 14 15
000
FTUS44 KBMX 170800 AAA
TAFTCL
TAF AMD
KTCL 170811Z 1708/1806 00000KT P6SM BKN110
     FM171000 36005KT P6SM OVC008
     FM171500 31007KT P6SM SCT250
     FM180000 00000KT P6SM SCT250=

USA.gov is the U.S. government's official web portal to all federal, state and local government web resources and services.